SKCG/CTG METAR and TAF weather

Enter ICAO airport designator
Station Type Date Time Source
SKCG METAR 2022/06/30 13:00 UTC NOAA

SKCG 301300Z 07005KT 010V100 9999 FEW017 BKN140 27/25 Q1010 RMK A2983


Station Type Date Time Source
SKCG Decoded METAR 2022/06/30 13:00 UTC NOAA

Cartagena / Rafael Nunez, Colombia (SKCG) 10-27N 075-31W 12M
Jun 30, 2022 - 09:00 AM EDT / 2022.06.30 1300 UTC
Wind: from the ENE (070 degrees) at 6 MPH (5 KT) (direction variable):0
Visibility: greater than 7 mile(s):0
Sky conditions: mostly cloudy
Temperature: 80 F (27 C)
Dew Point: 77 F (25 C)
Relative Humidity: 88%
Pressure (altimeter): 29.83 in. Hg (1010 hPa)
ob: SKCG 301300Z 07005KT 010V100 9999 FEW017 BKN140 27/25 Q1010 RMK A2983
cycle: 13

Station Type Date Time Source
SKCG TAF 2022/06/30 12:44 UTC NOAA

TAF SKCG 301030Z 3012/0112 VRB03KT 9999 SCT017
TEMPO 3016/3020 4000 TSRA SCT015CB BKN070
BECMG 3016/3018 31010KT SCT016 PROB40
TEMPO 3023/0102 5000 TSRA SCT015CB TX30/3018Z TN23/0110Z

Example: see airport list